Virgil, KS (66870)

5:48 AM CDT on August 31, 2015 (GMT -0500)
Gridley Fire Station | | Change Station
CLOSE
Current Station
Personal Weather Station
Location: Gridley, KS
Elevation: 1161 ft
Nearby Weather Stations

Elev 1161 ft 38.10 °N, 95.89 °W | Updated 8 minutes ago

Fog
Fog
68.8 °F
Feels Like 68.8 °F
N
1.0
Wind Variable Wind from East
Gusts 3.0 mph

Today
High -- | Low -- °F
--% Chance of Precip.
Yesterday
High -- | Low -- °F
Precip. -- in
6:53 AM 7:55 PM
Waning Gibbous, 96% visible
Pressure 29.96 in
Visibility 0.5 miles
Clouds Mostly Cloudy 2300 ft
Dew Point 68 °F
Humidity 96%
Rainfall 0.00 in
Snow Depth Not available.
UV 0 out of 12
Pollen 10.50 out of 12
Air Quality Not available.
Flu Activity Not available.
METAR KEMP 311013Z AUTO 00000KT 1/2SM FG BKN023 18/18 A2996 RMK AO2 T01780178
Pressure 29.96 in
Visibility 0.5 miles
Clouds Mostly Cloudy 2300 ft
Dew Point 68 °F
Humidity 96%
Rainfall 0.00 in
Snow Depth Not available.
UV 0 out of 12
Pollen 10.50 out of 12
Air Quality Not available.
Flu Activity Not available.
METAR KEMP 311013Z AUTO 00000KT 1/2SM FG BKN023 18/18 A2996 RMK AO2 T01780178

10-Day Weather Forecast

×

Almanac

Astronomy

Aug. 31, 2015 Rise Set
Actual Time
Civil Twilight
Nautical Twilight
Astronomical Twilight
Moon
Length of Visible Light
Length of Day
Tomorrow will be .
, % of the Moon is Illuminated

Today's Extremes

State Highs State Lows

Community

WunderPhotos

Upload Photos

1,851,227 photos uploaded!

WunderBlogs® & News

Nearby

Air Quality

  Air Quality AQ Index Pollutant
Not available.

Snow Depth

Station Depth Elevation

Earthquake Activity

City Distance Mag. Time & Date
Minimum magnitude displayed is 2.5.

Coastal Water Temperatures

Place Temperature

Stations

Nearby Weather Stations

Station Location Temp. Windchill Dew Point Humidity Wind Precip. Elev Updated Type